createdAt,value
2022-10-18T00:02:57.210Z,19.72
2022-10-18T00:06:05.020Z,19.85
2022-10-18T00:09:11.652Z,19.97
2022-10-18T00:12:18.327Z,20.05
2022-10-18T00:15:25.084Z,20.07
2022-10-18T00:18:31.777Z,20.08
2022-10-18T00:21:38.490Z,20.10
2022-10-18T00:24:45.110Z,20.04
2022-10-18T00:27:52.992Z,20.05
2022-10-18T00:30:59.744Z,19.78
2022-10-18T00:34:09.071Z,18.50
2022-10-18T00:37:15.964Z,17.73
2022-10-18T00:40:22.493Z,18.20
2022-10-18T00:43:29.356Z,18.58
2022-10-18T00:46:37.867Z,18.81
2022-10-18T00:49:47.723Z,18.99
2022-10-18T00:53:01.759Z,19.20
2022-10-18T00:56:09.283Z,19.42
2022-10-18T00:59:17.928Z,19.56
2022-10-18T01:02:24.984Z,19.66
2022-10-18T01:05:31.723Z,19.72
2022-10-18T01:08:51.319Z,19.45
2022-10-18T01:12:14.263Z,18.10
2022-10-18T01:15:27.181Z,17.30
2022-10-18T01:18:41.393Z,17.75
2022-10-18T01:21:52.755Z,18.10
2022-10-18T01:25:07.935Z,18.34
2022-10-18T01:28:33.383Z,18.57
2022-10-18T01:31:46.291Z,18.82
2022-10-18T01:34:58.553Z,19.07
2022-10-18T01:38:11.453Z,19.22
2022-10-18T01:41:21.568Z,19.35
2022-10-18T01:44:30.710Z,19.47
2022-10-18T01:47:38.088Z,19.17
2022-10-18T01:50:44.925Z,17.84
2022-10-18T01:53:51.654Z,17.04
2022-10-18T01:57:03.913Z,17.49
2022-10-18T02:00:18.346Z,17.96
2022-10-18T02:03:28.712Z,18.24
2022-10-18T02:06:41.604Z,18.38
2022-10-18T02:09:52.933Z,18.49
2022-10-18T02:13:01.034Z,18.57
2022-10-18T02:16:11.564Z,18.69
2022-10-18T02:22:34.679Z,18.89
2022-10-18T02:25:41.933Z,18.91
2022-10-18T02:28:49.082Z,18.94
2022-10-18T02:32:01.946Z,18.97
2022-10-18T02:35:12.673Z,19.05
2022-10-18T02:38:24.908Z,18.66
2022-10-18T02:41:33.682Z,17.17
2022-10-18T02:44:43.326Z,16.29
2022-10-18T02:47:50.338Z,16.83
2022-10-18T02:50:56.888Z,17.31
2022-10-18T02:54:03.699Z,17.59
2022-10-18T02:57:10.449Z,17.79
2022-10-18T03:00:18.335Z,17.95
2022-10-18T03:03:25.162Z,18.11
2022-10-18T03:06:32.219Z,18.28
2022-10-18T03:09:41.081Z,18.44
2022-10-18T03:12:47.871Z,18.60
2022-10-18T03:15:54.573Z,18.75
2022-10-18T03:19:01.243Z,18.86
2022-10-18T03:22:08.003Z,18.53
2022-10-18T03:25:15.391Z,17.25
2022-10-18T03:28:22.059Z,16.47
2022-10-18T03:31:28.793Z,17.13
2022-10-18T03:34:35.376Z,17.75
2022-10-18T03:37:42.076Z,17.89
2022-10-18T03:40:48.665Z,18.05
2022-10-18T03:43:55.271Z,18.20
2022-10-18T03:47:01.906Z,18.30
2022-10-18T03:50:09.711Z,18.41
2022-10-18T03:53:16.761Z,18.47
2022-10-18T03:56:23.476Z,18.53
2022-10-18T03:59:30.084Z,18.63
2022-10-18T04:02:36.922Z,18.70
2022-10-18T04:05:43.650Z,18.76
2022-10-18T04:08:50.207Z,18.76
2022-10-18T04:11:56.865Z,18.72
2022-10-18T04:15:03.416Z,18.72
2022-10-18T04:18:10.303Z,18.72
2022-10-18T04:21:17.981Z,18.76
2022-10-18T04:24:24.782Z,18.78
2022-10-18T04:27:31.982Z,18.84
2022-10-18T04:30:39.184Z,18.92
2022-10-18T04:33:45.939Z,19.01
2022-10-18T04:36:52.634Z,19.12
2022-10-18T04:40:00.003Z,19.19
2022-10-18T04:43:06.754Z,19.19
2022-10-18T04:46:13.397Z,19.12
2022-10-18T04:49:20.091Z,18.97
2022-10-18T04:52:26.745Z,18.87
2022-10-18T04:55:34.549Z,18.87
2022-10-18T04:58:41.195Z,18.94
2022-10-18T05:01:48.988Z,19.01
2022-10-18T05:04:55.719Z,19.06
2022-10-18T05:08:02.270Z,18.84
2022-10-18T05:14:16.788Z,16.89
2022-10-18T05:17:23.406Z,17.43
2022-10-18T05:20:30.065Z,17.96
2022-10-18T05:23:36.740Z,18.33
2022-10-18T05:26:43.353Z,18.51
2022-10-18T05:29:50.102Z,18.63
2022-10-18T05:32:56.704Z,18.84
2022-10-18T05:36:03.274Z,19.15
2022-10-18T05:39:09.822Z,19.43
2022-10-18T05:42:16.343Z,19.39
2022-10-18T05:45:23.049Z,18.26
2022-10-18T05:48:29.642Z,17.59
2022-10-18T05:51:36.182Z,18.23
2022-10-18T05:54:43.078Z,18.71
2022-10-18T05:57:53.048Z,19.08
2022-10-18T06:01:02.381Z,19.37
2022-10-18T06:04:07.921Z,19.62
2022-10-18T06:07:14.837Z,19.78
2022-10-18T06:10:21.481Z,20.04
2022-10-18T06:13:31.092Z,20.23
2022-10-18T06:16:39.109Z,20.39
2022-10-18T06:19:45.893Z,20.32
2022-10-18T06:22:54.675Z,19.24
2022-10-18T06:26:04.136Z,18.43
2022-10-18T06:29:09.525Z,18.78
2022-10-18T06:32:16.326Z,19.29
2022-10-18T06:35:22.977Z,19.70
2022-10-18T06:38:30.742Z,19.58
2022-10-18T06:41:37.364Z,19.46
2022-10-18T06:44:55.095Z,19.60
2022-10-18T06:48:02.184Z,19.45
2022-10-18T06:51:09.855Z,19.63
2022-10-18T06:54:18.504Z,19.78
2022-10-18T06:57:25.683Z,20.10
2022-10-18T07:00:32.265Z,20.34
2022-10-18T07:03:39.074Z,20.44
2022-10-18T07:06:45.700Z,20.54
2022-10-18T07:09:52.241Z,20.78
2022-10-18T07:13:13.544Z,20.91
2022-10-18T07:16:25.648Z,21.06
2022-10-18T07:19:33.081Z,21.19
2022-10-18T07:22:39.989Z,21.10
2022-10-18T07:25:47.026Z,21.11
2022-10-18T07:28:58.009Z,20.98
2022-10-18T07:32:05.237Z,21.01
2022-10-18T07:38:24.110Z,21.16
2022-10-18T07:41:33.323Z,21.18
2022-10-18T07:44:39.334Z,21.23
2022-10-18T07:47:46.153Z,21.00
2022-10-18T07:50:53.126Z,20.92
2022-10-18T07:54:00.211Z,21.22
2022-10-18T07:57:07.952Z,21.42
2022-10-18T08:00:16.229Z,21.53
2022-10-18T08:03:23.314Z,21.28
2022-10-18T08:06:30.155Z,21.35
2022-10-18T08:09:36.879Z,21.36
2022-10-18T08:12:43.620Z,21.19
2022-10-18T08:15:50.541Z,21.19
2022-10-18T08:18:58.282Z,20.93
2022-10-18T08:22:05.036Z,21.23
2022-10-18T08:25:12.392Z,21.32
2022-10-18T08:28:19.060Z,21.31
2022-10-18T08:31:25.931Z,21.55
2022-10-18T08:34:33.900Z,21.78
2022-10-18T08:37:45.491Z,21.85
2022-10-18T08:40:52.427Z,22.04
2022-10-18T08:44:10.329Z,22.28
2022-10-18T08:47:20.582Z,22.52
2022-10-18T08:50:34.945Z,22.64
2022-10-18T08:53:53.056Z,22.42
2022-10-18T08:57:02.673Z,22.14
2022-10-18T09:00:18.260Z,22.05
2022-10-18T09:03:45.182Z,22.15
2022-10-18T09:07:03.288Z,22.10
2022-10-18T09:10:22.514Z,22.19
2022-10-18T09:13:37.804Z,21.66
2022-10-18T09:16:51.656Z,21.27
2022-10-18T09:20:12.186Z,21.15
2022-10-18T09:23:25.109Z,21.40
2022-10-18T09:26:40.713Z,21.43
2022-10-18T09:29:59.706Z,21.14
2022-10-18T09:33:24.596Z,21.18
2022-10-18T09:36:35.603Z,21.02
2022-10-18T09:39:43.577Z,20.69
2022-10-18T09:42:56.811Z,21.07
2022-10-18T09:46:04.883Z,21.25
2022-10-18T09:49:18.139Z,21.42
2022-10-18T09:52:31.679Z,21.19
2022-10-18T09:55:50.336Z,21.09
2022-10-18T09:58:57.152Z,20.62
2022-10-18T10:02:08.101Z,20.65
2022-10-18T10:05:17.107Z,20.90
2022-10-18T10:08:35.668Z,20.83
2022-10-18T10:11:47.883Z,20.64
2022-10-18T10:14:54.748Z,20.50
2022-10-18T10:18:04.993Z,20.26
2022-10-18T10:21:17.246Z,20.12
2022-10-18T10:24:44.246Z,20.07
2022-10-18T10:27:50.884Z,20.25
2022-10-18T10:31:17.291Z,20.26
2022-10-18T10:34:25.414Z,20.20
2022-10-18T10:37:38.868Z,19.68
2022-10-18T10:40:50.323Z,19.68
2022-10-18T10:43:57.430Z,19.86
2022-10-18T10:47:06.014Z,19.70
2022-10-18T10:50:14.960Z,19.76
2022-10-18T10:53:39.961Z,19.76
2022-10-18T10:56:56.730Z,19.88
2022-10-18T11:00:04.913Z,19.87
2022-10-18T11:03:28.947Z,19.46
2022-10-18T11:06:47.737Z,19.05
2022-10-18T11:10:02.454Z,18.81
2022-10-18T11:13:24.237Z,19.33
2022-10-18T11:16:37.023Z,19.66
2022-10-18T11:19:53.869Z,19.58
2022-10-18T11:23:04.787Z,19.42
2022-10-18T11:26:22.041Z,19.52
2022-10-18T11:29:56.087Z,19.59
2022-10-18T11:33:13.351Z,19.70
2022-10-18T11:36:26.374Z,19.69
2022-10-18T11:39:44.621Z,19.73
2022-10-18T11:42:59.915Z,19.89
2022-10-18T11:46:13.265Z,19.94
2022-10-18T11:49:44.994Z,20.01
2022-10-18T11:53:02.194Z,20.00
2022-10-18T11:56:17.531Z,20.14
2022-10-18T11:59:38.007Z,19.70
2022-10-18T12:02:58.981Z,19.62
2022-10-18T12:06:13.476Z,19.62
2022-10-18T12:09:28.841Z,19.54
2022-10-18T12:12:43.144Z,19.83
2022-10-18T12:15:50.976Z,20.09
2022-10-18T12:19:01.122Z,20.33
2022-10-18T12:22:19.911Z,20.14
2022-10-18T12:25:29.312Z,20.24
2022-10-18T12:28:48.339Z,20.42
2022-10-18T12:31:58.394Z,20.54
2022-10-18T12:35:13.025Z,20.47
2022-10-18T12:38:36.789Z,20.54
2022-10-18T12:41:48.203Z,20.66
2022-10-18T12:45:05.577Z,20.56
2022-10-18T12:48:30.976Z,20.53
2022-10-18T12:51:50.300Z,20.59
2022-10-18T12:55:22.583Z,20.50
2022-10-18T12:58:33.699Z,20.36
2022-10-18T13:02:20.700Z,20.42
2022-10-18T13:05:56.712Z,20.54
2022-10-18T13:09:23.550Z,20.28
2022-10-18T13:12:56.560Z,20.15
2022-10-18T13:16:12.948Z,19.62
2022-10-18T13:19:26.566Z,19.84
2022-10-18T13:22:49.488Z,19.48
2022-10-18T13:26:03.604Z,19.75
2022-10-18T13:29:31.992Z,19.64
2022-10-18T13:32:48.298Z,19.30
2022-10-18T13:35:57.940Z,19.50
2022-10-18T13:39:07.324Z,19.54
2022-10-18T13:42:34.792Z,19.76
2022-10-18T13:46:00.496Z,19.85
2022-10-18T13:49:29.136Z,19.74
2022-10-18T13:52:53.192Z,19.88
2022-10-18T13:56:47.301Z,19.95
2022-10-18T14:00:05.689Z,20.06
2022-10-18T14:07:06.139Z,20.23
2022-10-18T14:10:33.345Z,20.39
2022-10-18T14:13:53.177Z,20.13
2022-10-18T14:17:07.978Z,20.23
2022-10-18T14:20:29.416Z,20.30
2022-10-18T14:23:42.816Z,20.36
2022-10-18T14:27:11.340Z,20.48
2022-10-18T14:30:21.314Z,20.63
2022-10-18T14:33:36.854Z,20.76
2022-10-18T14:36:47.304Z,20.89
2022-10-18T14:39:54.239Z,21.02
2022-10-18T14:43:05.205Z,21.11
2022-10-18T14:46:17.756Z,21.02
2022-10-18T14:49:24.441Z,20.88
2022-10-18T14:52:35.671Z,20.58
2022-10-18T14:55:44.190Z,20.24
2022-10-18T14:58:52.326Z,19.64
2022-10-18T15:02:02.156Z,19.15
2022-10-18T15:05:19.374Z,19.17
2022-10-18T15:08:28.142Z,19.43
2022-10-18T15:11:35.046Z,19.03
2022-10-18T15:14:43.396Z,18.65
2022-10-18T15:17:52.562Z,18.83
2022-10-18T15:21:20.438Z,18.88
2022-10-18T15:24:34.632Z,18.50
2022-10-18T15:27:45.026Z,18.66
2022-10-18T15:30:51.864Z,18.94
2022-10-18T15:34:11.775Z,18.98
2022-10-18T15:37:30.206Z,18.81
2022-10-18T15:40:43.307Z,19.05
2022-10-18T15:43:50.263Z,18.89
2022-10-18T15:47:10.504Z,18.65
2022-10-18T15:50:41.130Z,19.13
2022-10-18T15:53:54.327Z,19.10
2022-10-18T15:57:07.978Z,18.96
2022-10-18T16:00:21.629Z,19.26
2022-10-18T16:03:29.339Z,19.47
2022-10-18T16:06:38.641Z,19.59
2022-10-18T16:09:45.570Z,19.45
2022-10-18T16:12:52.265Z,19.45
2022-10-18T16:16:00.305Z,19.63
2022-10-18T16:19:07.363Z,19.70
2022-10-18T16:22:16.180Z,19.51
2022-10-18T16:25:22.954Z,19.43
2022-10-18T16:28:31.892Z,19.34
2022-10-18T16:31:38.702Z,19.38
2022-10-18T16:34:45.450Z,19.47
2022-10-18T16:37:52.377Z,19.43
2022-10-18T16:40:59.682Z,19.10
2022-10-18T16:44:06.602Z,18.47
2022-10-18T16:47:13.950Z,18.27
2022-10-18T16:50:22.892Z,18.30
2022-10-18T16:53:29.942Z,18.62
2022-10-18T16:56:36.780Z,18.30
2022-10-18T16:59:43.526Z,17.84
2022-10-18T17:02:50.835Z,18.05
2022-10-18T17:05:57.845Z,18.08
2022-10-18T17:09:04.727Z,18.07
2022-10-18T17:12:11.380Z,17.60
2022-10-18T17:15:18.416Z,17.19
2022-10-18T17:18:27.591Z,17.43
2022-10-18T17:21:34.817Z,17.29
2022-10-18T17:24:41.459Z,17.38
2022-10-18T17:27:48.555Z,17.39
2022-10-18T17:30:55.260Z,17.35
2022-10-18T17:34:02.536Z,17.16
2022-10-18T17:37:11.542Z,17.32
2022-10-18T17:40:18.605Z,17.05
2022-10-18T17:43:25.203Z,17.06
2022-10-18T17:46:31.999Z,17.33
2022-10-18T17:49:38.713Z,17.19
2022-10-18T17:52:47.077Z,17.40
2022-10-18T17:56:02.333Z,17.58
2022-10-18T17:59:09.661Z,17.50
2022-10-18T18:02:16.583Z,17.56
2022-10-18T18:05:23.308Z,17.55
2022-10-18T18:08:30.811Z,17.57
2022-10-18T18:11:39.278Z,17.38
2022-10-18T18:14:46.120Z,16.96
2022-10-18T18:17:57.056Z,17.17
2022-10-18T18:21:04.522Z,17.57
2022-10-18T18:24:12.597Z,17.42
2022-10-18T18:27:19.258Z,17.39
2022-10-18T18:30:26.005Z,17.22
2022-10-18T18:33:34.816Z,17.15
2022-10-18T18:36:41.758Z,17.05
2022-10-18T18:39:48.702Z,16.94
2022-10-18T18:43:07.220Z,17.30
2022-10-18T18:46:22.868Z,17.35
2022-10-18T18:49:31.603Z,17.17
2022-10-18T18:52:38.375Z,17.14
2022-10-18T18:55:48.658Z,16.85
2022-10-18T18:58:56.853Z,16.83
2022-10-18T19:02:03.528Z,16.66
2022-10-18T19:05:10.740Z,16.72
2022-10-18T19:08:17.473Z,16.59
2022-10-18T19:11:25.037Z,16.72
2022-10-18T19:14:31.542Z,16.97
2022-10-18T19:17:38.348Z,16.89
2022-10-18T19:20:44.992Z,16.59
2022-10-18T19:23:52.051Z,16.84
2022-10-18T19:27:00.805Z,16.99
2022-10-18T19:30:09.873Z,17.14
2022-10-18T19:33:35.393Z,17.00
2022-10-18T19:36:50.095Z,16.54
2022-10-18T19:39:56.750Z,16.50
2022-10-18T19:43:03.363Z,16.69
2022-10-18T19:46:11.216Z,16.33
2022-10-18T19:49:18.608Z,16.35
2022-10-18T19:52:25.235Z,16.57
2022-10-18T19:55:32.019Z,16.50
2022-10-18T19:58:38.640Z,16.60
2022-10-18T20:01:46.396Z,16.90
2022-10-18T20:04:53.132Z,17.05
2022-10-18T20:07:59.966Z,16.94
2022-10-18T20:11:09.020Z,16.78
2022-10-18T20:14:15.675Z,16.98
2022-10-18T20:17:22.352Z,17.00
2022-10-18T20:20:28.905Z,16.98
2022-10-18T20:23:39.079Z,16.98
2022-10-18T20:26:45.721Z,17.19
2022-10-18T20:29:52.496Z,17.25
2022-10-18T20:32:59.259Z,17.06
2022-10-18T20:36:08.367Z,16.86
2022-10-18T20:39:15.053Z,16.79
2022-10-18T20:42:21.719Z,16.85
2022-10-18T20:45:28.450Z,16.75
2022-10-18T20:48:35.910Z,16.87
2022-10-18T20:51:42.770Z,16.78
2022-10-18T20:54:49.561Z,16.72
2022-10-18T20:57:56.317Z,16.75
2022-10-18T21:01:09.658Z,16.82
2022-10-18T21:04:16.387Z,16.85
2022-10-18T21:07:23.032Z,16.80
2022-10-18T21:10:29.643Z,16.67
2022-10-18T21:13:36.598Z,16.64
2022-10-18T21:16:43.973Z,16.62
2022-10-18T21:19:50.614Z,16.49
2022-10-18T21:22:57.521Z,16.47
2022-10-18T21:26:04.349Z,16.32
2022-10-18T21:29:12.403Z,16.41
2022-10-18T21:32:19.235Z,16.40
2022-10-18T21:35:25.782Z,16.39
2022-10-18T21:38:32.611Z,16.50
2022-10-18T21:41:39.187Z,16.63
2022-10-18T21:44:46.011Z,16.74
2022-10-18T21:47:52.642Z,16.80
2022-10-18T21:51:02.724Z,16.84
2022-10-18T21:54:12.567Z,16.91
2022-10-18T21:57:19.262Z,16.94
2022-10-18T22:00:25.896Z,16.95
2022-10-18T22:03:32.649Z,16.96
2022-10-18T22:06:39.261Z,16.89
2022-10-18T22:09:46.051Z,16.78
2022-10-18T22:12:52.632Z,16.72
2022-10-18T22:16:03.253Z,16.59
2022-10-18T22:19:10.198Z,16.59
2022-10-18T22:22:16.820Z,16.57
2022-10-18T22:25:23.533Z,16.56
2022-10-18T22:28:30.283Z,16.53
2022-10-18T22:31:39.543Z,16.45
2022-10-18T22:34:46.200Z,16.42
2022-10-18T22:37:56.030Z,16.38
2022-10-18T22:41:06.395Z,16.31
2022-10-18T22:44:15.697Z,16.30
2022-10-18T22:47:22.409Z,16.21
2022-10-18T22:50:29.038Z,16.12
2022-10-18T22:53:36.261Z,16.10
2022-10-18T22:56:42.949Z,16.04
2022-10-18T22:59:49.474Z,16.07
2022-10-18T23:02:56.138Z,15.97
2022-10-18T23:06:03.272Z,15.78
2022-10-18T23:09:11.725Z,15.60
2022-10-18T23:12:18.580Z,15.70
2022-10-18T23:15:25.179Z,15.50
2022-10-18T23:18:32.376Z,15.26
2022-10-18T23:21:39.039Z,15.05
2022-10-18T23:24:45.589Z,15.39
2022-10-18T23:27:52.357Z,15.08
2022-10-18T23:30:59.067Z,15.41
2022-10-18T23:34:07.026Z,15.33
2022-10-18T23:37:13.639Z,15.10
2022-10-18T23:40:20.484Z,14.96
2022-10-18T23:43:27.235Z,14.96
2022-10-18T23:46:33.891Z,14.91
2022-10-18T23:49:40.459Z,14.97
2022-10-18T23:52:47.085Z,15.31
2022-10-18T23:55:57.987Z,15.24
2022-10-18T23:59:04.737Z,15.19
